sensor_id;sensor_type;location;lat;lon;timestamp;P1;durP1;ratioP1;P2;durP2;ratioP2
70545;SDS011;58098;51.680;5.134;2023-02-15T00:00:01;64.82;;;27.20;;
70545;SDS011;58098;51.680;5.134;2023-02-15T00:02:26;63.13;;;26.87;;
70545;SDS011;58098;51.680;5.134;2023-02-15T00:04:51;59.57;;;26.20;;
70545;SDS011;58098;51.680;5.134;2023-02-15T00:07:18;57.92;;;25.02;;
70545;SDS011;58098;51.680;5.134;2023-02-15T00:09:47;55.88;;;24.95;;
70545;SDS011;58098;51.680;5.134;2023-02-15T00:12:12;58.50;;;26.40;;
70545;SDS011;58098;51.680;5.134;2023-02-15T00:14:38;63.50;;;26.37;;
70545;SDS011;58098;51.680;5.134;2023-02-15T00:17:04;69.05;;;27.38;;
70545;SDS011;58098;51.680;5.134;2023-02-15T00:19:30;64.33;;;27.27;;
70545;SDS011;58098;51.680;5.134;2023-02-15T00:21:55;64.18;;;27.67;;
70545;SDS011;58098;51.680;5.134;2023-02-15T00:24:21;60.83;;;27.00;;
70545;SDS011;58098;51.680;5.134;2023-02-15T00:26:46;58.17;;;25.30;;
70545;SDS011;58098;51.680;5.134;2023-02-15T00:29:13;59.10;;;26.15;;
70545;SDS011;58098;51.680;5.134;2023-02-15T00:31:39;57.45;;;25.77;;
70545;SDS011;58098;51.680;5.134;2023-02-15T00:34:21;61.20;;;26.47;;
70545;SDS011;58098;51.680;5.134;2023-02-15T00:36:48;55.80;;;25.40;;
70545;SDS011;58098;51.680;5.134;2023-02-15T00:39:14;65.07;;;26.50;;
70545;SDS011;58098;51.680;5.134;2023-02-15T00:41:40;57.37;;;25.93;;
70545;SDS011;58098;51.680;5.134;2023-02-15T00:44:06;58.97;;;25.67;;
70545;SDS011;58098;51.680;5.134;2023-02-15T00:46:32;61.07;;;26.40;;
70545;SDS011;58098;51.680;5.134;2023-02-15T00:48:57;59.25;;;25.98;;
70545;SDS011;58098;51.680;5.134;2023-02-15T00:51:23;59.83;;;25.40;;
70545;SDS011;58098;51.680;5.134;2023-02-15T00:53:49;62.67;;;27.40;;
70545;SDS011;58098;51.680;5.134;2023-02-15T00:56:15;64.22;;;28.00;;
70545;SDS011;58098;51.680;5.134;2023-02-15T00:58:40;57.97;;;26.10;;
70545;SDS011;58098;51.680;5.134;2023-02-15T01:01:07;62.70;;;26.60;;
70545;SDS011;58098;51.680;5.134;2023-02-15T01:03:34;67.30;;;27.40;;
70545;SDS011;58098;51.680;5.134;2023-02-15T01:06:00;57.77;;;25.47;;
70545;SDS011;58098;51.680;5.134;2023-02-15T01:08:25;60.05;;;26.48;;
70545;SDS011;58098;51.680;5.134;2023-02-15T01:10:51;58.97;;;27.73;;
70545;SDS011;58098;51.680;5.134;2023-02-15T01:13:16;62.03;;;26.07;;
70545;SDS011;58098;51.680;5.134;2023-02-15T01:15:42;61.08;;;26.90;;
70545;SDS011;58098;51.680;5.134;2023-02-15T01:18:08;59.57;;;26.90;;
70545;SDS011;58098;51.680;5.134;2023-02-15T01:20:35;59.43;;;27.70;;
70545;SDS011;58098;51.680;5.134;2023-02-15T01:23:03;60.83;;;26.15;;
70545;SDS011;58098;51.680;5.134;2023-02-15T01:25:29;63.05;;;26.75;;
70545;SDS011;58098;51.680;5.134;2023-02-15T01:27:55;63.83;;;25.90;;
70545;SDS011;58098;51.680;5.134;2023-02-15T01:30:20;59.43;;;26.03;;
70545;SDS011;58098;51.680;5.134;2023-02-15T01:32:45;63.67;;;26.53;;
70545;SDS011;58098;51.680;5.134;2023-02-15T01:35:11;64.00;;;26.93;;
70545;SDS011;58098;51.680;5.134;2023-02-15T01:37:36;66.20;;;27.27;;
70545;SDS011;58098;51.680;5.134;2023-02-15T01:40:03;59.93;;;26.60;;
70545;SDS011;58098;51.680;5.134;2023-02-15T01:42:31;65.97;;;28.23;;
70545;SDS011;58098;51.680;5.134;2023-02-15T01:44:57;64.57;;;27.08;;
70545;SDS011;58098;51.680;5.134;2023-02-15T01:47:36;65.00;;;27.52;;
70545;SDS011;58098;51.680;5.134;2023-02-15T01:52:27;62.17;;;26.50;;
70545;SDS011;58098;51.680;5.134;2023-02-15T01:54:54;73.72;;;28.98;;
70545;SDS011;58098;51.680;5.134;2023-02-15T01:57:20;63.90;;;27.63;;
70545;SDS011;58098;51.680;5.134;2023-02-15T01:59:49;72.70;;;28.23;;
70545;SDS011;58098;51.680;5.134;2023-02-15T02:02:19;67.70;;;27.40;;
70545;SDS011;58098;51.680;5.134;2023-02-15T02:04:53;66.63;;;26.77;;
70545;SDS011;58098;51.680;5.134;2023-02-15T02:07:27;60.20;;;26.67;;
70545;SDS011;58098;51.680;5.134;2023-02-15T02:09:54;60.60;;;26.13;;
70545;SDS011;58098;51.680;5.134;2023-02-15T02:12:19;63.37;;;26.50;;
70545;SDS011;58098;51.680;5.134;2023-02-15T02:14:47;60.10;;;25.83;;
70545;SDS011;58098;51.680;5.134;2023-02-15T02:17:16;65.15;;;27.88;;
70545;SDS011;58098;51.680;5.134;2023-02-15T02:23:04;57.75;;;26.40;;
70545;SDS011;58098;51.680;5.134;2023-02-15T02:42:12;64.68;;;26.00;;
70545;SDS011;58098;51.680;5.134;2023-02-15T02:44:52;58.97;;;25.92;;
70545;SDS011;58098;51.680;5.134;2023-02-15T02:47:32;59.58;;;25.27;;
70545;SDS011;58098;51.680;5.134;2023-02-15T02:50:05;61.83;;;26.38;;
70545;SDS011;58098;51.680;5.134;2023-02-15T02:52:50;64.33;;;26.17;;
70545;SDS011;58098;51.680;5.134;2023-02-15T02:58:24;60.63;;;25.27;;
70545;SDS011;58098;51.680;5.134;2023-02-15T03:00:57;55.45;;;25.83;;
70545;SDS011;58098;51.680;5.134;2023-02-15T03:03:34;59.95;;;26.65;;
70545;SDS011;58098;51.680;5.134;2023-02-15T03:06:13;59.57;;;26.33;;
70545;SDS011;58098;51.680;5.134;2023-02-15T03:09:08;65.50;;;26.75;;
70545;SDS011;58098;51.680;5.134;2023-02-15T03:11:40;56.90;;;26.02;;
70545;SDS011;58098;51.680;5.134;2023-02-15T03:14:07;63.33;;;26.77;;
70545;SDS011;58098;51.680;5.134;2023-02-15T03:16:33;60.33;;;26.70;;
70545;SDS011;58098;51.680;5.134;2023-02-15T03:19:05;67.65;;;27.75;;
70545;SDS011;58098;51.680;5.134;2023-02-15T03:21:34;67.05;;;26.98;;
70545;SDS011;58098;51.680;5.134;2023-02-15T03:24:13;63.35;;;27.05;;
70545;SDS011;58098;51.680;5.134;2023-02-15T03:26:42;59.83;;;26.40;;
70545;SDS011;58098;51.680;5.134;2023-02-15T03:29:10;60.30;;;26.90;;
70545;SDS011;58098;51.680;5.134;2023-02-15T03:31:39;64.80;;;28.02;;
70545;SDS011;58098;51.680;5.134;2023-02-15T03:34:10;68.90;;;27.58;;
70545;SDS011;58098;51.680;5.134;2023-02-15T03:39:17;62.37;;;27.67;;
70545;SDS011;58098;51.680;5.134;2023-02-15T03:42:08;63.50;;;26.60;;
70545;SDS011;58098;51.680;5.134;2023-02-15T03:47:17;63.40;;;26.40;;
70545;SDS011;58098;51.680;5.134;2023-02-15T03:49:55;62.53;;;27.10;;
70545;SDS011;58098;51.680;5.134;2023-02-15T03:52:26;69.32;;;28.75;;
70545;SDS011;58098;51.680;5.134;2023-02-15T03:54:53;67.10;;;27.20;;
70545;SDS011;58098;51.680;5.134;2023-02-15T04:00:12;68.38;;;27.33;;
70545;SDS011;58098;51.680;5.134;2023-02-15T04:05:39;61.88;;;26.63;;
70545;SDS011;58098;51.680;5.134;2023-02-15T04:08:05;62.10;;;26.90;;
70545;SDS011;58098;51.680;5.134;2023-02-15T04:10:30;61.30;;;27.50;;
70545;SDS011;58098;51.680;5.134;2023-02-15T04:13:14;64.72;;;28.40;;
70545;SDS011;58098;51.680;5.134;2023-02-15T04:15:39;66.87;;;26.67;;
70545;SDS011;58098;51.680;5.134;2023-02-15T04:18:23;69.47;;;27.65;;
70545;SDS011;58098;51.680;5.134;2023-02-15T04:21:07;68.85;;;27.83;;
70545;SDS011;58098;51.680;5.134;2023-02-15T04:23:51;66.97;;;28.23;;
70545;SDS011;58098;51.680;5.134;2023-02-15T04:26:35;66.20;;;27.40;;
70545;SDS011;58098;51.680;5.134;2023-02-15T04:29:00;64.03;;;26.70;;
70545;SDS011;58098;51.680;5.134;2023-02-15T04:31:26;74.07;;;28.27;;
70545;SDS011;58098;51.680;5.134;2023-02-15T04:33:51;71.43;;;26.73;;
70545;SDS011;58098;51.680;5.134;2023-02-15T04:36:16;66.23;;;26.80;;
70545;SDS011;58098;51.680;5.134;2023-02-15T04:38:42;72.23;;;27.77;;
70545;SDS011;58098;51.680;5.134;2023-02-15T04:41:07;63.03;;;26.30;;
70545;SDS011;58098;51.680;5.134;2023-02-15T04:43:32;63.20;;;27.83;;
70545;SDS011;58098;51.680;5.134;2023-02-15T04:45:58;64.70;;;27.02;;
70545;SDS011;58098;51.680;5.134;2023-02-15T04:48:23;70.13;;;27.43;;
70545;SDS011;58098;51.680;5.134;2023-02-15T04:50:49;60.70;;;26.13;;
70545;SDS011;58098;51.680;5.134;2023-02-15T04:53:14;66.17;;;26.60;;
70545;SDS011;58098;51.680;5.134;2023-02-15T04:55:41;71.38;;;27.40;;
70545;SDS011;58098;51.680;5.134;2023-02-15T04:58:06;67.57;;;28.10;;
70545;SDS011;58098;51.680;5.134;2023-02-15T05:00:32;64.07;;;26.90;;
70545;SDS011;58098;51.680;5.134;2023-02-15T05:02:57;59.37;;;25.77;;
70545;SDS011;58098;51.680;5.134;2023-02-15T05:05:22;70.53;;;26.67;;
70545;SDS011;58098;51.680;5.134;2023-02-15T05:07:48;67.50;;;25.52;;
70545;SDS011;58098;51.680;5.134;2023-02-15T05:10:13;59.87;;;26.23;;
70545;SDS011;58098;51.680;5.134;2023-02-15T05:12:38;65.03;;;26.57;;
70545;SDS011;58098;51.680;5.134;2023-02-15T05:15:04;60.33;;;25.60;;
70545;SDS011;58098;51.680;5.134;2023-02-15T05:17:29;68.50;;;27.07;;
70545;SDS011;58098;51.680;5.134;2023-02-15T05:19:55;68.90;;;26.33;;
70545;SDS011;58098;51.680;5.134;2023-02-15T05:22:20;61.27;;;24.80;;
70545;SDS011;58098;51.680;5.134;2023-02-15T05:24:45;68.73;;;26.67;;
70545;SDS011;58098;51.680;5.134;2023-02-15T05:27:29;65.82;;;27.88;;
70545;SDS011;58098;51.680;5.134;2023-02-15T05:30:13;63.50;;;26.10;;
70545;SDS011;58098;51.680;5.134;2023-02-15T05:32:39;64.97;;;28.05;;
70545;SDS011;58098;51.680;5.134;2023-02-15T05:35:05;71.07;;;27.50;;
70545;SDS011;58098;51.680;5.134;2023-02-15T05:37:31;73.82;;;27.42;;
70545;SDS011;58098;51.680;5.134;2023-02-15T05:39:56;68.03;;;27.03;;
70545;SDS011;58098;51.680;5.134;2023-02-15T05:42:21;62.80;;;27.13;;
70545;SDS011;58098;51.680;5.134;2023-02-15T05:44:47;67.20;;;27.77;;
70545;SDS011;58098;51.680;5.134;2023-02-15T05:47:12;62.97;;;26.43;;
70545;SDS011;58098;51.680;5.134;2023-02-15T05:49:37;58.23;;;26.37;;
70545;SDS011;58098;51.680;5.134;2023-02-15T05:52:03;67.00;;;28.17;;
70545;SDS011;58098;51.680;5.134;2023-02-15T05:54:28;73.28;;;28.48;;
70545;SDS011;58098;51.680;5.134;2023-02-15T05:56:54;59.57;;;26.70;;
70545;SDS011;58098;51.680;5.134;2023-02-15T05:59:19;65.27;;;25.67;;
70545;SDS011;58098;51.680;5.134;2023-02-15T06:01:44;68.67;;;27.90;;
70545;SDS011;58098;51.680;5.134;2023-02-15T06:04:10;61.20;;;26.23;;
70545;SDS011;58098;51.680;5.134;2023-02-15T06:06:35;67.17;;;24.63;;
70545;SDS011;58098;51.680;5.134;2023-02-15T06:09:00;59.93;;;26.57;;
70545;SDS011;58098;51.680;5.134;2023-02-15T06:11:26;62.70;;;22.47;;
70545;SDS011;58098;51.680;5.134;2023-02-15T06:13:51;58.53;;;24.53;;
70545;SDS011;58098;51.680;5.134;2023-02-15T06:16:16;58.50;;;24.80;;
70545;SDS011;58098;51.680;5.134;2023-02-15T06:18:42;65.90;;;26.17;;
70545;SDS011;58098;51.680;5.134;2023-02-15T06:21:08;65.32;;;26.77;;
70545;SDS011;58098;51.680;5.134;2023-02-15T06:23:33;62.80;;;26.27;;
70545;SDS011;58098;51.680;5.134;2023-02-15T06:25:58;65.77;;;25.87;;
70545;SDS011;58098;51.680;5.134;2023-02-15T06:28:24;53.27;;;23.33;;
70545;SDS011;58098;51.680;5.134;2023-02-15T06:30:50;66.07;;;27.63;;
70545;SDS011;58098;51.680;5.134;2023-02-15T06:33:16;60.47;;;25.20;;
70545;SDS011;58098;51.680;5.134;2023-02-15T06:35:41;52.97;;;22.57;;
70545;SDS011;58098;51.680;5.134;2023-02-15T06:38:06;58.87;;;24.30;;
70545;SDS011;58098;51.680;5.134;2023-02-15T06:40:32;64.67;;;25.87;;
70545;SDS011;58098;51.680;5.134;2023-02-15T06:42:57;71.27;;;27.03;;
70545;SDS011;58098;51.680;5.134;2023-02-15T06:45:22;59.47;;;23.63;;
70545;SDS011;58098;51.680;5.134;2023-02-15T06:47:48;58.93;;;25.73;;
70545;SDS011;58098;51.680;5.134;2023-02-15T06:50:13;61.63;;;24.97;;
70545;SDS011;58098;51.680;5.134;2023-02-15T06:52:38;62.53;;;25.37;;
70545;SDS011;58098;51.680;5.134;2023-02-15T06:55:04;59.00;;;24.50;;
70545;SDS011;58098;51.680;5.134;2023-02-15T06:57:30;71.17;;;26.10;;
70545;SDS011;58098;51.680;5.134;2023-02-15T06:59:55;63.88;;;26.50;;
70545;SDS011;58098;51.680;5.134;2023-02-15T07:02:23;65.85;;;26.98;;
70545;SDS011;58098;51.680;5.134;2023-02-15T07:04:48;69.00;;;27.70;;
70545;SDS011;58098;51.680;5.134;2023-02-15T07:07:13;65.33;;;27.03;;
70545;SDS011;58098;51.680;5.134;2023-02-15T07:09:39;71.07;;;26.87;;
70545;SDS011;58098;51.680;5.134;2023-02-15T07:12:04;67.13;;;27.87;;
70545;SDS011;58098;51.680;5.134;2023-02-15T07:14:49;62.65;;;26.10;;
70545;SDS011;58098;51.680;5.134;2023-02-15T07:17:14;73.27;;;27.40;;
70545;SDS011;58098;51.680;5.134;2023-02-15T07:19:40;69.13;;;26.83;;
70545;SDS011;58098;51.680;5.134;2023-02-15T07:22:05;68.30;;;25.03;;
70545;SDS011;58098;51.680;5.134;2023-02-15T07:24:30;66.90;;;27.67;;
70545;SDS011;58098;51.680;5.134;2023-02-15T07:26:56;70.27;;;27.27;;
70545;SDS011;58098;51.680;5.134;2023-02-15T07:29:22;71.18;;;27.60;;
70545;SDS011;58098;51.680;5.134;2023-02-15T07:31:48;69.57;;;28.60;;
70545;SDS011;58098;51.680;5.134;2023-02-15T07:34:13;71.82;;;29.40;;
70545;SDS011;58098;51.680;5.134;2023-02-15T07:36:38;76.30;;;30.23;;
70545;SDS011;58098;51.680;5.134;2023-02-15T07:39:04;71.20;;;28.00;;
70545;SDS011;58098;51.680;5.134;2023-02-15T07:41:29;75.93;;;28.23;;
70545;SDS011;58098;51.680;5.134;2023-02-15T07:43:54;70.63;;;27.50;;
70545;SDS011;58098;51.680;5.134;2023-02-15T07:46:20;61.83;;;24.13;;
70545;SDS011;58098;51.680;5.134;2023-02-15T07:48:46;76.03;;;28.45;;
70545;SDS011;58098;51.680;5.134;2023-02-15T07:51:12;72.88;;;28.45;;
70545;SDS011;58098;51.680;5.134;2023-02-15T07:53:39;69.93;;;29.50;;
70545;SDS011;58098;51.680;5.134;2023-02-15T07:56:06;70.30;;;27.48;;
70545;SDS011;58098;51.680;5.134;2023-02-15T07:58:35;75.05;;;29.38;;
70545;SDS011;58098;51.680;5.134;2023-02-15T08:01:16;72.95;;;29.10;;
70545;SDS011;58098;51.680;5.134;2023-02-15T08:03:55;67.13;;;27.25;;
70545;SDS011;58098;51.680;5.134;2023-02-15T08:06:22;69.53;;;26.60;;
70545;SDS011;58098;51.680;5.134;2023-02-15T08:08:50;66.60;;;26.13;;
70545;SDS011;58098;51.680;5.134;2023-02-15T08:11:17;80.35;;;30.20;;
70545;SDS011;58098;51.680;5.134;2023-02-15T08:13:57;84.53;;;32.40;;
70545;SDS011;58098;51.680;5.134;2023-02-15T08:19:08;84.83;;;32.43;;
70545;SDS011;58098;51.680;5.134;2023-02-15T08:21:41;83.65;;;32.40;;
70545;SDS011;58098;51.680;5.134;2023-02-15T08:24:10;84.15;;;30.83;;
70545;SDS011;58098;51.680;5.134;2023-02-15T08:26:38;88.88;;;33.42;;
70545;SDS011;58098;51.680;5.134;2023-02-15T08:29:04;85.43;;;32.57;;
70545;SDS011;58098;51.680;5.134;2023-02-15T08:31:31;92.85;;;35.50;;
70545;SDS011;58098;51.680;5.134;2023-02-15T08:33:57;94.32;;;36.38;;
70545;SDS011;58098;51.680;5.134;2023-02-15T08:36:24;97.87;;;35.10;;
70545;SDS011;58098;51.680;5.134;2023-02-15T08:38:50;94.03;;;36.35;;
70545;SDS011;58098;51.680;5.134;2023-02-15T08:41:20;94.90;;;36.30;;
70545;SDS011;58098;51.680;5.134;2023-02-15T08:43:46;91.85;;;36.90;;
70545;SDS011;58098;51.680;5.134;2023-02-15T08:46:14;91.85;;;37.50;;
70545;SDS011;58098;51.680;5.134;2023-02-15T08:48:40;98.15;;;37.20;;
70545;SDS011;58098;51.680;5.134;2023-02-15T08:51:09;85.33;;;35.63;;
70545;SDS011;58098;51.680;5.134;2023-02-15T08:53:35;93.50;;;36.88;;
70545;SDS011;58098;51.680;5.134;2023-02-15T08:56:05;95.00;;;38.95;;
70545;SDS011;58098;51.680;5.134;2023-02-15T08:58:31;91.65;;;38.42;;
70545;SDS011;58098;51.680;5.134;2023-02-15T09:00:57;98.40;;;37.93;;
70545;SDS011;58098;51.680;5.134;2023-02-15T09:03:23;93.93;;;36.63;;
70545;SDS011;58098;51.680;5.134;2023-02-15T09:05:48;96.30;;;38.90;;
70545;SDS011;58098;51.680;5.134;2023-02-15T09:08:14;96.67;;;37.67;;
70545;SDS011;58098;51.680;5.134;2023-02-15T09:10:39;96.75;;;37.33;;
70545;SDS011;58098;51.680;5.134;2023-02-15T09:13:04;99.97;;;38.57;;
70545;SDS011;58098;51.680;5.134;2023-02-15T09:15:30;99.07;;;39.40;;
70545;SDS011;58098;51.680;5.134;2023-02-15T09:17:55;98.33;;;40.23;;
70545;SDS011;58098;51.680;5.134;2023-02-15T09:20:20;101.13;;;37.90;;
70545;SDS011;58098;51.680;5.134;2023-02-15T09:22:46;103.78;;;39.50;;
70545;SDS011;58098;51.680;5.134;2023-02-15T09:25:12;97.50;;;41.20;;
70545;SDS011;58098;51.680;5.134;2023-02-15T09:27:38;98.32;;;40.08;;
70545;SDS011;58098;51.680;5.134;2023-02-15T09:30:04;105.22;;;41.58;;
70545;SDS011;58098;51.680;5.134;2023-02-15T09:32:30;105.80;;;42.53;;
70545;SDS011;58098;51.680;5.134;2023-02-15T09:34:56;98.90;;;40.90;;
70545;SDS011;58098;51.680;5.134;2023-02-15T09:37:21;98.00;;;42.17;;
70545;SDS011;58098;51.680;5.134;2023-02-15T09:39:46;104.50;;;41.63;;
70545;SDS011;58098;51.680;5.134;2023-02-15T09:47:48;97.53;;;42.27;;
70545;SDS011;58098;51.680;5.134;2023-02-15T10:06:53;78.68;;;35.25;;
70545;SDS011;58098;51.680;5.134;2023-02-15T10:09:36;85.78;;;38.13;;
70545;SDS011;58098;51.680;5.134;2023-02-15T10:23:47;79.82;;;38.83;;
70545;SDS011;58098;51.680;5.134;2023-02-15T10:26:36;73.28;;;34.58;;
70545;SDS011;58098;51.680;5.134;2023-02-15T10:29:09;70.50;;;33.37;;
70545;SDS011;58098;51.680;5.134;2023-02-15T10:34:40;71.78;;;32.70;;
70545;SDS011;58098;51.680;5.134;2023-02-15T10:40:14;65.97;;;32.55;;
70545;SDS011;58098;51.680;5.134;2023-02-15T10:45:49;72.57;;;34.78;;
70545;SDS011;58098;51.680;5.134;2023-02-15T10:48:34;63.78;;;31.67;;
70545;SDS011;58098;51.680;5.134;2023-02-15T10:51:03;67.03;;;33.67;;
70545;SDS011;58098;51.680;5.134;2023-02-15T10:53:55;67.18;;;31.98;;
70545;SDS011;58098;51.680;5.134;2023-02-15T10:56:35;62.27;;;31.77;;
70545;SDS011;58098;51.680;5.134;2023-02-15T10:59:18;69.38;;;32.53;;
70545;SDS011;58098;51.680;5.134;2023-02-15T11:01:55;68.53;;;34.38;;
70545;SDS011;58098;51.680;5.134;2023-02-15T11:07:23;69.07;;;32.72;;
70545;SDS011;58098;51.680;5.134;2023-02-15T11:12:56;61.22;;;29.17;;
70545;SDS011;58098;51.680;5.134;2023-02-15T11:15:39;55.50;;;28.17;;
70545;SDS011;58098;51.680;5.134;2023-02-15T11:23:44;62.13;;;29.37;;
70545;SDS011;58098;51.680;5.134;2023-02-15T11:28:47;61.23;;;28.93;;
70545;SDS011;58098;51.680;5.134;2023-02-15T11:31:17;57.08;;;25.65;;
70545;SDS011;58098;51.680;5.134;2023-02-15T11:33:46;55.25;;;26.38;;
70545;SDS011;58098;51.680;5.134;2023-02-15T11:36:16;55.88;;;24.75;;
70545;SDS011;58098;51.680;5.134;2023-02-15T11:38:47;55.38;;;26.83;;
70545;SDS011;58098;51.680;5.134;2023-02-15T11:41:18;61.07;;;27.63;;
70545;SDS011;58098;51.680;5.134;2023-02-15T11:43:49;54.22;;;27.65;;
70545;SDS011;58098;51.680;5.134;2023-02-15T11:46:19;55.08;;;27.58;;
70545;SDS011;58098;51.680;5.134;2023-02-15T11:48:46;56.65;;;26.92;;
70545;SDS011;58098;51.680;5.134;2023-02-15T11:51:12;61.77;;;28.87;;
70545;SDS011;58098;51.680;5.134;2023-02-15T11:53:41;56.08;;;27.75;;
70545;SDS011;58098;51.680;5.134;2023-02-15T11:56:15;56.55;;;27.92;;
70545;SDS011;58098;51.680;5.134;2023-02-15T11:58:43;57.50;;;27.42;;
70545;SDS011;58098;51.680;5.134;2023-02-15T12:03:59;63.40;;;29.48;;
70545;SDS011;58098;51.680;5.134;2023-02-15T12:06:28;58.45;;;29.60;;
70545;SDS011;58098;51.680;5.134;2023-02-15T12:08:57;53.95;;;28.52;;
70545;SDS011;58098;51.680;5.134;2023-02-15T12:11:35;56.50;;;28.33;;
70545;SDS011;58098;51.680;5.134;2023-02-15T12:14:07;55.87;;;27.23;;
70545;SDS011;58098;51.680;5.134;2023-02-15T12:16:40;56.78;;;28.58;;
70545;SDS011;58098;51.680;5.134;2023-02-15T12:21:49;61.38;;;30.67;;
70545;SDS011;58098;51.680;5.134;2023-02-15T12:24:21;56.72;;;29.20;;
70545;SDS011;58098;51.680;5.134;2023-02-15T12:26:56;49.87;;;27.10;;
70545;SDS011;58098;51.680;5.134;2023-02-15T12:29:23;58.85;;;29.20;;
70545;SDS011;58098;51.680;5.134;2023-02-15T12:31:52;57.80;;;31.02;;
70545;SDS011;58098;51.680;5.134;2023-02-15T12:36:56;51.10;;;26.23;;
70545;SDS011;58098;51.680;5.134;2023-02-15T12:39:27;54.33;;;29.10;;
70545;SDS011;58098;51.680;5.134;2023-02-15T12:44:21;57.07;;;31.10;;
70545;SDS011;58098;51.680;5.134;2023-02-15T12:47:02;58.42;;;29.27;;
70545;SDS011;58098;51.680;5.134;2023-02-15T12:49:38;55.30;;;26.93;;
70545;SDS011;58098;51.680;5.134;2023-02-15T12:52:05;49.47;;;25.70;;
70545;SDS011;58098;51.680;5.134;2023-02-15T12:54:42;56.33;;;28.83;;
70545;SDS011;58098;51.680;5.134;2023-02-15T13:02:49;53.87;;;26.30;;
70545;SDS011;58098;51.680;5.134;2023-02-15T13:05:38;58.65;;;27.90;;
70545;SDS011;58098;51.680;5.134;2023-02-15T13:10:58;47.65;;;25.30;;
70545;SDS011;58098;51.680;5.134;2023-02-15T13:13:26;46.33;;;24.10;;
70545;SDS011;58098;51.680;5.134;2023-02-15T13:15:56;47.10;;;24.47;;
70545;SDS011;58098;51.680;5.134;2023-02-15T13:18:34;49.90;;;24.50;;
70545;SDS011;58098;51.680;5.134;2023-02-15T13:23:34;54.42;;;24.13;;
70545;SDS011;58098;51.680;5.134;2023-02-15T13:26:02;47.17;;;24.50;;
70545;SDS011;58098;51.680;5.134;2023-02-15T13:28:37;50.93;;;24.27;;
70545;SDS011;58098;51.680;5.134;2023-02-15T13:31:11;45.78;;;22.10;;
70545;SDS011;58098;51.680;5.134;2023-02-15T13:33:38;45.50;;;24.02;;
70545;SDS011;58098;51.680;5.134;2023-02-15T13:38:57;49.90;;;25.23;;
70545;SDS011;58098;51.680;5.134;2023-02-15T13:50:01;48.83;;;25.13;;
70545;SDS011;58098;51.680;5.134;2023-02-15T13:52:41;53.15;;;23.30;;
70545;SDS011;58098;51.680;5.134;2023-02-15T13:55:26;44.30;;;24.00;;
70545;SDS011;58098;51.680;5.134;2023-02-15T13:58:12;51.13;;;24.83;;
70545;SDS011;58098;51.680;5.134;2023-02-15T14:00:56;51.13;;;25.60;;
70545;SDS011;58098;51.680;5.134;2023-02-15T14:09:35;51.57;;;22.50;;
70545;SDS011;58098;51.680;5.134;2023-02-15T14:17:35;50.88;;;25.13;;
70545;SDS011;58098;51.680;5.134;2023-02-15T14:23:16;47.27;;;24.17;;
70545;SDS011;58098;51.680;5.134;2023-02-15T14:31:16;47.80;;;24.05;;
70545;SDS011;58098;51.680;5.134;2023-02-15T14:33:53;51.25;;;25.73;;
70545;SDS011;58098;51.680;5.134;2023-02-15T14:36:20;51.10;;;24.50;;
70545;SDS011;58098;51.680;5.134;2023-02-15T14:42:02;49.55;;;25.92;;
70545;SDS011;58098;51.680;5.134;2023-02-15T14:44:38;53.20;;;26.25;;
70545;SDS011;58098;51.680;5.134;2023-02-15T14:47:12;51.45;;;25.73;;
70545;SDS011;58098;51.680;5.134;2023-02-15T14:49:56;49.87;;;25.47;;
70545;SDS011;58098;51.680;5.134;2023-02-15T14:52:22;52.05;;;24.42;;
70545;SDS011;58098;51.680;5.134;2023-02-15T14:59:43;54.57;;;25.00;;
70545;SDS011;58098;51.680;5.134;2023-02-15T15:05:18;46.33;;;23.73;;
70545;SDS011;58098;51.680;5.134;2023-02-15T15:07:52;54.40;;;25.10;;
70545;SDS011;58098;51.680;5.134;2023-02-15T15:12:49;48.37;;;24.17;;
70545;SDS011;58098;51.680;5.134;2023-02-15T15:31:09;48.35;;;24.45;;
70545;SDS011;58098;51.680;5.134;2023-02-15T15:42:24;53.83;;;25.60;;
70545;SDS011;58098;51.680;5.134;2023-02-15T15:50:52;52.33;;;25.23;;
70545;SDS011;58098;51.680;5.134;2023-02-15T15:53:22;54.20;;;26.27;;
70545;SDS011;58098;51.680;5.134;2023-02-15T15:55:51;49.72;;;25.48;;
70545;SDS011;58098;51.680;5.134;2023-02-15T15:58:24;53.70;;;26.08;;
70545;SDS011;58098;51.680;5.134;2023-02-15T16:00:51;50.87;;;26.07;;
70545;SDS011;58098;51.680;5.134;2023-02-15T16:03:27;52.25;;;26.10;;
70545;SDS011;58098;51.680;5.134;2023-02-15T16:05:53;58.00;;;27.02;;
70545;SDS011;58098;51.680;5.134;2023-02-15T16:08:30;53.20;;;26.20;;
70545;SDS011;58098;51.680;5.134;2023-02-15T16:10:56;51.92;;;25.63;;
70545;SDS011;58098;51.680;5.134;2023-02-15T16:13:23;47.80;;;25.23;;
70545;SDS011;58098;51.680;5.134;2023-02-15T16:15:50;54.38;;;25.17;;
70545;SDS011;58098;51.680;5.134;2023-02-15T16:18:18;53.50;;;25.73;;
70545;SDS011;58098;51.680;5.134;2023-02-15T16:20:57;54.07;;;26.30;;
70545;SDS011;58098;51.680;5.134;2023-02-15T16:28:57;47.35;;;25.27;;
70545;SDS011;58098;51.680;5.134;2023-02-15T16:31:23;55.22;;;26.40;;
70545;SDS011;58098;51.680;5.134;2023-02-15T16:33:51;58.83;;;25.53;;
70545;SDS011;58098;51.680;5.134;2023-02-15T16:36:22;51.30;;;26.25;;
70545;SDS011;58098;51.680;5.134;2023-02-15T16:41:32;53.00;;;28.20;;
70545;SDS011;58098;51.680;5.134;2023-02-15T16:43:58;59.95;;;28.20;;
70545;SDS011;58098;51.680;5.134;2023-02-15T16:46:32;52.25;;;27.48;;
70545;SDS011;58098;51.680;5.134;2023-02-15T16:49:02;51.33;;;26.08;;
70545;SDS011;58098;51.680;5.134;2023-02-15T16:51:32;50.92;;;26.52;;
70545;SDS011;58098;51.680;5.134;2023-02-15T16:54:08;56.67;;;28.40;;
70545;SDS011;58098;51.680;5.134;2023-02-15T16:56:43;57.08;;;27.85;;
70545;SDS011;58098;51.680;5.134;2023-02-15T17:02:00;56.83;;;26.70;;
70545;SDS011;58098;51.680;5.134;2023-02-15T17:04:30;58.25;;;28.70;;
70545;SDS011;58098;51.680;5.134;2023-02-15T17:09:28;52.28;;;28.73;;
70545;SDS011;58098;51.680;5.134;2023-02-15T17:11:53;58.20;;;29.13;;
70545;SDS011;58098;51.680;5.134;2023-02-15T17:14:20;57.05;;;26.63;;
70545;SDS011;58098;51.680;5.134;2023-02-15T17:16:54;57.03;;;26.67;;
70545;SDS011;58098;51.680;5.134;2023-02-15T17:22:20;55.88;;;27.33;;
70545;SDS011;58098;51.680;5.134;2023-02-15T17:24:49;55.03;;;26.33;;
70545;SDS011;58098;51.680;5.134;2023-02-15T17:27:24;59.33;;;26.70;;
70545;SDS011;58098;51.680;5.134;2023-02-15T17:29:51;52.22;;;25.42;;
70545;SDS011;58098;51.680;5.134;2023-02-15T17:32:22;59.07;;;25.63;;
70545;SDS011;58098;51.680;5.134;2023-02-15T17:37:47;53.75;;;25.80;;
70545;SDS011;58098;51.680;5.134;2023-02-15T17:42:44;50.35;;;23.65;;
70545;SDS011;58098;51.680;5.134;2023-02-15T17:45:09;53.73;;;25.27;;
70545;SDS011;58098;51.680;5.134;2023-02-15T17:47:34;53.73;;;25.63;;
70545;SDS011;58098;51.680;5.134;2023-02-15T17:50:01;48.87;;;23.40;;
70545;SDS011;58098;51.680;5.134;2023-02-15T17:52:29;50.92;;;24.67;;
70545;SDS011;58098;51.680;5.134;2023-02-15T17:54:55;57.30;;;27.15;;
70545;SDS011;58098;51.680;5.134;2023-02-15T17:57:39;58.10;;;27.67;;
70545;SDS011;58098;51.680;5.134;2023-02-15T18:00:05;57.13;;;26.90;;
70545;SDS011;58098;51.680;5.134;2023-02-15T18:02:49;62.55;;;27.55;;
70545;SDS011;58098;51.680;5.134;2023-02-15T18:05:33;61.23;;;27.80;;
70545;SDS011;58098;51.680;5.134;2023-02-15T18:08:17;56.03;;;26.90;;